sensor_id;sensor_type;location;lat;lon;timestamp;P1;durP1;ratioP1;P2;durP2;ratioP2
61709;SDS011;47633;51.494;5.386;2023-08-20T00:02:19;5.25;;;2.20;;
61709;SDS011;47633;51.494;5.386;2023-08-20T00:04:48;4.97;;;1.85;;
61709;SDS011;47633;51.494;5.386;2023-08-20T00:07:14;4.93;;;1.90;;
61709;SDS011;47633;51.494;5.386;2023-08-20T00:09:43;4.95;;;2.15;;
61709;SDS011;47633;51.494;5.386;2023-08-20T00:12:08;5.63;;;2.20;;
61709;SDS011;47633;51.494;5.386;2023-08-20T00:19:58;6.55;;;3.00;;
61709;SDS011;47633;51.494;5.386;2023-08-20T00:22:23;4.30;;;1.98;;
61709;SDS011;47633;51.494;5.386;2023-08-20T00:24:50;4.85;;;1.88;;
61709;SDS011;47633;51.494;5.386;2023-08-20T00:27:17;4.57;;;1.83;;
61709;SDS011;47633;51.494;5.386;2023-08-20T00:29:42;4.30;;;1.75;;
61709;SDS011;47633;51.494;5.386;2023-08-20T00:32:08;5.45;;;1.95;;
61709;SDS011;47633;51.494;5.386;2023-08-20T00:34:34;4.47;;;1.90;;
61709;SDS011;47633;51.494;5.386;2023-08-20T00:36:59;5.50;;;2.00;;
61709;SDS011;47633;51.494;5.386;2023-08-20T00:39:25;4.72;;;1.77;;
61709;SDS011;47633;51.494;5.386;2023-08-20T00:41:51;5.63;;;2.10;;
61709;SDS011;47633;51.494;5.386;2023-08-20T00:44:16;5.45;;;1.90;;
61709;SDS011;47633;51.494;5.386;2023-08-20T00:46:41;5.45;;;1.83;;
61709;SDS011;47633;51.494;5.386;2023-08-20T00:49:07;5.70;;;1.80;;
61709;SDS011;47633;51.494;5.386;2023-08-20T00:51:32;6.20;;;1.80;;
61709;SDS011;47633;51.494;5.386;2023-08-20T00:53:59;4.80;;;2.00;;
61709;SDS011;47633;51.494;5.386;2023-08-20T00:56:25;5.05;;;2.00;;
61709;SDS011;47633;51.494;5.386;2023-08-20T00:58:52;3.70;;;1.73;;
61709;SDS011;47633;51.494;5.386;2023-08-20T01:01:18;3.72;;;1.70;;
61709;SDS011;47633;51.494;5.386;2023-08-20T01:03:43;6.00;;;2.10;;
61709;SDS011;47633;51.494;5.386;2023-08-20T01:08:57;4.50;;;1.70;;
61709;SDS011;47633;51.494;5.386;2023-08-20T01:11:33;6.85;;;2.17;;
61709;SDS011;47633;51.494;5.386;2023-08-20T01:14:13;4.40;;;1.73;;
61709;SDS011;47633;51.494;5.386;2023-08-20T01:16:40;4.50;;;2.00;;
61709;SDS011;47633;51.494;5.386;2023-08-20T01:19:06;3.80;;;1.70;;
61709;SDS011;47633;51.494;5.386;2023-08-20T01:21:37;4.72;;;1.90;;
61709;SDS011;47633;51.494;5.386;2023-08-20T01:24:17;5.40;;;1.80;;
61709;SDS011;47633;51.494;5.386;2023-08-20T01:27:19;4.47;;;1.70;;
61709;SDS011;47633;51.494;5.386;2023-08-20T01:30:17;5.22;;;1.88;;
61709;SDS011;47633;51.494;5.386;2023-08-20T01:32:45;4.45;;;1.80;;
61709;SDS011;47633;51.494;5.386;2023-08-20T01:35:13;5.10;;;1.85;;
61709;SDS011;47633;51.494;5.386;2023-08-20T01:37:41;3.17;;;1.35;;
61709;SDS011;47633;51.494;5.386;2023-08-20T01:40:07;3.65;;;1.42;;
61709;SDS011;47633;51.494;5.386;2023-08-20T01:42:35;5.28;;;1.60;;
61709;SDS011;47633;51.494;5.386;2023-08-20T01:45:03;4.60;;;1.73;;
61709;SDS011;47633;51.494;5.386;2023-08-20T01:47:30;4.53;;;1.58;;
61709;SDS011;47633;51.494;5.386;2023-08-20T01:49:55;4.70;;;1.80;;
61709;SDS011;47633;51.494;5.386;2023-08-20T01:52:21;4.60;;;1.73;;
61709;SDS011;47633;51.494;5.386;2023-08-20T01:54:47;5.70;;;1.63;;
61709;SDS011;47633;51.494;5.386;2023-08-20T01:57:13;4.20;;;1.60;;
61709;SDS011;47633;51.494;5.386;2023-08-20T01:59:38;4.60;;;1.73;;
61709;SDS011;47633;51.494;5.386;2023-08-20T02:02:04;4.80;;;1.90;;
61709;SDS011;47633;51.494;5.386;2023-08-20T02:04:31;4.07;;;1.40;;
61709;SDS011;47633;51.494;5.386;2023-08-20T02:06:56;4.60;;;1.63;;
61709;SDS011;47633;51.494;5.386;2023-08-20T02:09:21;4.43;;;1.60;;
61709;SDS011;47633;51.494;5.386;2023-08-20T02:11:47;6.85;;;1.85;;
61709;SDS011;47633;51.494;5.386;2023-08-20T02:14:12;5.63;;;2.00;;
61709;SDS011;47633;51.494;5.386;2023-08-20T02:16:38;3.70;;;1.60;;
61709;SDS011;47633;51.494;5.386;2023-08-20T02:19:03;4.47;;;1.55;;
61709;SDS011;47633;51.494;5.386;2023-08-20T02:21:30;5.30;;;1.65;;
61709;SDS011;47633;51.494;5.386;2023-08-20T02:23:56;4.45;;;1.60;;
61709;SDS011;47633;51.494;5.386;2023-08-20T02:26:21;5.30;;;1.80;;
61709;SDS011;47633;51.494;5.386;2023-08-20T02:28:46;4.00;;;1.70;;
61709;SDS011;47633;51.494;5.386;2023-08-20T02:31:12;4.15;;;1.50;;
61709;SDS011;47633;51.494;5.386;2023-08-20T02:33:37;3.87;;;1.57;;
61709;SDS011;47633;51.494;5.386;2023-08-20T02:36:03;4.18;;;1.63;;
61709;SDS011;47633;51.494;5.386;2023-08-20T02:38:29;5.15;;;1.70;;
61709;SDS011;47633;51.494;5.386;2023-08-20T02:40:54;5.53;;;1.70;;
61709;SDS011;47633;51.494;5.386;2023-08-20T02:43:20;4.07;;;1.58;;
61709;SDS011;47633;51.494;5.386;2023-08-20T02:45:45;4.82;;;1.40;;
61709;SDS011;47633;51.494;5.386;2023-08-20T02:48:10;4.82;;;1.80;;
61709;SDS011;47633;51.494;5.386;2023-08-20T02:50:36;6.68;;;2.00;;
61709;SDS011;47633;51.494;5.386;2023-08-20T02:53:01;4.15;;;1.50;;
61709;SDS011;47633;51.494;5.386;2023-08-20T02:55:28;4.72;;;1.60;;
61709;SDS011;47633;51.494;5.386;2023-08-20T02:57:53;4.43;;;1.60;;
61709;SDS011;47633;51.494;5.386;2023-08-20T03:00:19;5.20;;;1.75;;
61709;SDS011;47633;51.494;5.386;2023-08-20T03:02:44;3.65;;;1.38;;
61709;SDS011;47633;51.494;5.386;2023-08-20T03:05:09;3.65;;;1.50;;
61709;SDS011;47633;51.494;5.386;2023-08-20T03:07:35;4.35;;;1.88;;
61709;SDS011;47633;51.494;5.386;2023-08-20T03:10:00;4.57;;;1.63;;
61709;SDS011;47633;51.494;5.386;2023-08-20T03:12:26;4.50;;;1.70;;
61709;SDS011;47633;51.494;5.386;2023-08-20T03:14:51;5.55;;;1.70;;
61709;SDS011;47633;51.494;5.386;2023-08-20T03:17:16;4.90;;;1.90;;
61709;SDS011;47633;51.494;5.386;2023-08-20T03:19:53;3.88;;;1.63;;
61709;SDS011;47633;51.494;5.386;2023-08-20T03:22:23;3.58;;;1.58;;
61709;SDS011;47633;51.494;5.386;2023-08-20T03:24:49;4.70;;;1.45;;
61709;SDS011;47633;51.494;5.386;2023-08-20T03:27:15;3.40;;;1.50;;
61709;SDS011;47633;51.494;5.386;2023-08-20T03:29:41;4.30;;;1.75;;
61709;SDS011;47633;51.494;5.386;2023-08-20T03:32:07;4.88;;;1.70;;
61709;SDS011;47633;51.494;5.386;2023-08-20T03:34:32;4.40;;;1.80;;
61709;SDS011;47633;51.494;5.386;2023-08-20T03:36:58;3.20;;;1.42;;
61709;SDS011;47633;51.494;5.386;2023-08-20T03:39:23;4.95;;;1.75;;
61709;SDS011;47633;51.494;5.386;2023-08-20T03:41:49;6.18;;;1.95;;
61709;SDS011;47633;51.494;5.386;2023-08-20T03:44:15;4.20;;;1.48;;
61709;SDS011;47633;51.494;5.386;2023-08-20T03:46:40;4.53;;;1.90;;
61709;SDS011;47633;51.494;5.386;2023-08-20T03:49:05;4.53;;;1.70;;
61709;SDS011;47633;51.494;5.386;2023-08-20T03:51:31;4.95;;;1.60;;
61709;SDS011;47633;51.494;5.386;2023-08-20T03:53:56;5.40;;;1.85;;
61709;SDS011;47633;51.494;5.386;2023-08-20T03:56:21;4.15;;;1.55;;
61709;SDS011;47633;51.494;5.386;2023-08-20T03:58:47;3.47;;;1.40;;
61709;SDS011;47633;51.494;5.386;2023-08-20T04:01:12;6.63;;;1.90;;
61709;SDS011;47633;51.494;5.386;2023-08-20T04:03:37;4.30;;;1.77;;
61709;SDS011;47633;51.494;5.386;2023-08-20T04:06:03;3.23;;;1.47;;
61709;SDS011;47633;51.494;5.386;2023-08-20T04:08:28;4.57;;;1.70;;
61709;SDS011;47633;51.494;5.386;2023-08-20T04:10:54;3.80;;;1.50;;
61709;SDS011;47633;51.494;5.386;2023-08-20T04:13:19;5.78;;;1.70;;
61709;SDS011;47633;51.494;5.386;2023-08-20T04:15:44;5.40;;;1.67;;
61709;SDS011;47633;51.494;5.386;2023-08-20T04:18:10;4.40;;;1.90;;
61709;SDS011;47633;51.494;5.386;2023-08-20T04:20:35;5.50;;;1.70;;
61709;SDS011;47633;51.494;5.386;2023-08-20T04:23:01;4.88;;;1.80;;
61709;SDS011;47633;51.494;5.386;2023-08-20T04:25:26;3.83;;;1.65;;
61709;SDS011;47633;51.494;5.386;2023-08-20T04:27:52;4.15;;;1.70;;
61709;SDS011;47633;51.494;5.386;2023-08-20T04:30:17;3.42;;;1.40;;
61709;SDS011;47633;51.494;5.386;2023-08-20T04:32:42;3.78;;;1.65;;
61709;SDS011;47633;51.494;5.386;2023-08-20T04:35:08;3.47;;;1.50;;
61709;SDS011;47633;51.494;5.386;2023-08-20T04:37:33;5.05;;;1.77;;
61709;SDS011;47633;51.494;5.386;2023-08-20T04:39:59;4.05;;;1.67;;
61709;SDS011;47633;51.494;5.386;2023-08-20T04:42:24;4.32;;;1.50;;
61709;SDS011;47633;51.494;5.386;2023-08-20T04:44:49;3.95;;;1.50;;
61709;SDS011;47633;51.494;5.386;2023-08-20T04:47:15;5.38;;;1.77;;
61709;SDS011;47633;51.494;5.386;2023-08-20T04:49:40;4.97;;;1.63;;
61709;SDS011;47633;51.494;5.386;2023-08-20T04:52:06;3.92;;;1.60;;
61709;SDS011;47633;51.494;5.386;2023-08-20T04:54:31;4.13;;;1.60;;
61709;SDS011;47633;51.494;5.386;2023-08-20T04:56:56;3.70;;;1.70;;
61709;SDS011;47633;51.494;5.386;2023-08-20T04:59:22;3.42;;;1.60;;
61709;SDS011;47633;51.494;5.386;2023-08-20T05:01:47;4.28;;;1.70;;
61709;SDS011;47633;51.494;5.386;2023-08-20T05:04:12;3.75;;;1.77;;
61709;SDS011;47633;51.494;5.386;2023-08-20T05:06:38;4.60;;;1.90;;
61709;SDS011;47633;51.494;5.386;2023-08-20T05:09:03;4.20;;;1.58;;
61709;SDS011;47633;51.494;5.386;2023-08-20T05:11:29;4.15;;;1.70;;
61709;SDS011;47633;51.494;5.386;2023-08-20T05:13:57;4.00;;;1.75;;
61709;SDS011;47633;51.494;5.386;2023-08-20T05:16:23;4.65;;;1.73;;
61709;SDS011;47633;51.494;5.386;2023-08-20T05:18:48;4.85;;;1.70;;
61709;SDS011;47633;51.494;5.386;2023-08-20T05:21:14;4.30;;;1.55;;
61709;SDS011;47633;51.494;5.386;2023-08-20T05:23:39;6.40;;;2.15;;
61709;SDS011;47633;51.494;5.386;2023-08-20T05:26:06;3.60;;;1.75;;
61709;SDS011;47633;51.494;5.386;2023-08-20T05:28:32;4.82;;;1.63;;
61709;SDS011;47633;51.494;5.386;2023-08-20T05:30:58;3.90;;;1.52;;
61709;SDS011;47633;51.494;5.386;2023-08-20T05:33:23;4.18;;;1.60;;
61709;SDS011;47633;51.494;5.386;2023-08-20T05:35:49;4.00;;;1.70;;
61709;SDS011;47633;51.494;5.386;2023-08-20T05:38:15;3.45;;;1.60;;
61709;SDS011;47633;51.494;5.386;2023-08-20T05:40:40;4.65;;;1.70;;
61709;SDS011;47633;51.494;5.386;2023-08-20T05:43:06;4.50;;;2.05;;
61709;SDS011;47633;51.494;5.386;2023-08-20T05:45:31;5.03;;;1.98;;
61709;SDS011;47633;51.494;5.386;2023-08-20T05:47:56;4.18;;;1.80;;
61709;SDS011;47633;51.494;5.386;2023-08-20T05:50:22;3.40;;;1.65;;
61709;SDS011;47633;51.494;5.386;2023-08-20T05:52:47;3.65;;;1.63;;
61709;SDS011;47633;51.494;5.386;2023-08-20T05:55:13;3.30;;;1.60;;
61709;SDS011;47633;51.494;5.386;2023-08-20T05:57:39;3.97;;;1.88;;
61709;SDS011;47633;51.494;5.386;2023-08-20T06:00:04;4.07;;;1.60;;
61709;SDS011;47633;51.494;5.386;2023-08-20T06:02:30;4.00;;;1.52;;
61709;SDS011;47633;51.494;5.386;2023-08-20T06:04:55;3.55;;;1.60;;
61709;SDS011;47633;51.494;5.386;2023-08-20T06:07:21;4.78;;;1.90;;
61709;SDS011;47633;51.494;5.386;2023-08-20T06:09:46;4.95;;;1.60;;
61709;SDS011;47633;51.494;5.386;2023-08-20T06:12:12;4.55;;;1.88;;
61709;SDS011;47633;51.494;5.386;2023-08-20T06:14:37;4.28;;;1.83;;
61709;SDS011;47633;51.494;5.386;2023-08-20T06:17:03;4.40;;;1.67;;
61709;SDS011;47633;51.494;5.386;2023-08-20T06:19:28;3.92;;;1.55;;
61709;SDS011;47633;51.494;5.386;2023-08-20T06:21:54;5.57;;;1.70;;
61709;SDS011;47633;51.494;5.386;2023-08-20T06:24:19;5.38;;;1.80;;
61709;SDS011;47633;51.494;5.386;2023-08-20T06:26:45;4.78;;;1.85;;
61709;SDS011;47633;51.494;5.386;2023-08-20T06:29:10;5.13;;;1.50;;
61709;SDS011;47633;51.494;5.386;2023-08-20T06:31:35;4.45;;;1.60;;
61709;SDS011;47633;51.494;5.386;2023-08-20T06:34:01;4.03;;;1.70;;
61709;SDS011;47633;51.494;5.386;2023-08-20T06:36:27;4.53;;;1.60;;
61709;SDS011;47633;51.494;5.386;2023-08-20T06:38:52;3.83;;;1.52;;
61709;SDS011;47633;51.494;5.386;2023-08-20T06:41:18;3.60;;;1.57;;
61709;SDS011;47633;51.494;5.386;2023-08-20T06:43:43;5.40;;;1.88;;
61709;SDS011;47633;51.494;5.386;2023-08-20T06:46:08;3.92;;;1.52;;
61709;SDS011;47633;51.494;5.386;2023-08-20T06:48:34;4.68;;;1.50;;
61709;SDS011;47633;51.494;5.386;2023-08-20T06:51:07;3.72;;;1.58;;
61709;SDS011;47633;51.494;5.386;2023-08-20T06:53:35;3.65;;;1.58;;
61709;SDS011;47633;51.494;5.386;2023-08-20T06:56:00;4.47;;;1.60;;
61709;SDS011;47633;51.494;5.386;2023-08-20T06:58:26;4.82;;;1.50;;
61709;SDS011;47633;51.494;5.386;2023-08-20T07:00:51;5.23;;;1.70;;
61709;SDS011;47633;51.494;5.386;2023-08-20T07:03:16;7.32;;;2.00;;
61709;SDS011;47633;51.494;5.386;2023-08-20T07:05:42;5.78;;;2.03;;
61709;SDS011;47633;51.494;5.386;2023-08-20T07:08:07;4.32;;;1.77;;
61709;SDS011;47633;51.494;5.386;2023-08-20T07:10:33;6.10;;;2.33;;
61709;SDS011;47633;51.494;5.386;2023-08-20T07:12:58;5.97;;;1.80;;
61709;SDS011;47633;51.494;5.386;2023-08-20T07:15:24;5.18;;;2.15;;
61709;SDS011;47633;51.494;5.386;2023-08-20T07:17:49;5.57;;;2.08;;
61709;SDS011;47633;51.494;5.386;2023-08-20T07:20:14;7.35;;;2.47;;
61709;SDS011;47633;51.494;5.386;2023-08-20T07:22:39;5.07;;;2.03;;
61709;SDS011;47633;51.494;5.386;2023-08-20T07:25:05;6.07;;;2.08;;
61709;SDS011;47633;51.494;5.386;2023-08-20T07:27:30;5.22;;;2.03;;
61709;SDS011;47633;51.494;5.386;2023-08-20T07:29:56;6.28;;;2.30;;
61709;SDS011;47633;51.494;5.386;2023-08-20T07:32:22;6.78;;;2.50;;
61709;SDS011;47633;51.494;5.386;2023-08-20T07:34:48;6.60;;;2.80;;
61709;SDS011;47633;51.494;5.386;2023-08-20T07:37:13;7.43;;;3.20;;
61709;SDS011;47633;51.494;5.386;2023-08-20T07:39:38;5.68;;;2.78;;
61709;SDS011;47633;51.494;5.386;2023-08-20T07:42:05;7.50;;;2.45;;
61709;SDS011;47633;51.494;5.386;2023-08-20T07:44:31;6.22;;;2.70;;
61709;SDS011;47633;51.494;5.386;2023-08-20T07:46:56;5.75;;;2.20;;
61709;SDS011;47633;51.494;5.386;2023-08-20T07:49:21;7.68;;;2.50;;
61709;SDS011;47633;51.494;5.386;2023-08-20T07:51:47;5.72;;;2.25;;
61709;SDS011;47633;51.494;5.386;2023-08-20T07:54:13;7.25;;;2.30;;
61709;SDS011;47633;51.494;5.386;2023-08-20T07:56:38;6.95;;;3.05;;
61709;SDS011;47633;51.494;5.386;2023-08-20T07:59:04;6.28;;;2.63;;
61709;SDS011;47633;51.494;5.386;2023-08-20T08:01:29;5.22;;;2.65;;
61709;SDS011;47633;51.494;5.386;2023-08-20T08:03:54;5.23;;;2.53;;
61709;SDS011;47633;51.494;5.386;2023-08-20T08:06:20;6.53;;;2.35;;
61709;SDS011;47633;51.494;5.386;2023-08-20T08:08:51;8.02;;;2.67;;
61709;SDS011;47633;51.494;5.386;2023-08-20T08:11:17;5.35;;;2.72;;
61709;SDS011;47633;51.494;5.386;2023-08-20T08:13:43;6.65;;;2.13;;
61709;SDS011;47633;51.494;5.386;2023-08-20T08:16:08;5.75;;;2.63;;
61709;SDS011;47633;51.494;5.386;2023-08-20T08:18:33;6.35;;;2.20;;
61709;SDS011;47633;51.494;5.386;2023-08-20T08:21:00;14.52;;;2.35;;
61709;SDS011;47633;51.494;5.386;2023-08-20T08:23:25;5.90;;;2.42;;
61709;SDS011;47633;51.494;5.386;2023-08-20T08:25:51;6.22;;;2.40;;
61709;SDS011;47633;51.494;5.386;2023-08-20T08:28:18;8.18;;;2.42;;
61709;SDS011;47633;51.494;5.386;2023-08-20T08:30:45;4.65;;;2.05;;
61709;SDS011;47633;51.494;5.386;2023-08-20T08:33:10;4.77;;;2.37;;
61709;SDS011;47633;51.494;5.386;2023-08-20T08:35:39;4.57;;;2.20;;
61709;SDS011;47633;51.494;5.386;2023-08-20T08:38:04;7.60;;;2.40;;
61709;SDS011;47633;51.494;5.386;2023-08-20T08:40:30;6.93;;;2.65;;
61709;SDS011;47633;51.494;5.386;2023-08-20T08:42:55;5.03;;;2.15;;
61709;SDS011;47633;51.494;5.386;2023-08-20T08:45:23;4.12;;;1.80;;
61709;SDS011;47633;51.494;5.386;2023-08-20T08:47:51;6.72;;;1.98;;
61709;SDS011;47633;51.494;5.386;2023-08-20T08:50:19;5.07;;;1.90;;
61709;SDS011;47633;51.494;5.386;2023-08-20T08:52:44;6.57;;;2.20;;
61709;SDS011;47633;51.494;5.386;2023-08-20T08:55:13;4.15;;;1.80;;
61709;SDS011;47633;51.494;5.386;2023-08-20T08:57:41;4.32;;;1.77;;
61709;SDS011;47633;51.494;5.386;2023-08-20T09:00:06;6.15;;;2.08;;
61709;SDS011;47633;51.494;5.386;2023-08-20T09:02:32;4.95;;;2.47;;
61709;SDS011;47633;51.494;5.386;2023-08-20T09:04:58;4.57;;;1.80;;
61709;SDS011;47633;51.494;5.386;2023-08-20T09:07:23;5.50;;;2.20;;
61709;SDS011;47633;51.494;5.386;2023-08-20T09:09:48;4.22;;;1.80;;
61709;SDS011;47633;51.494;5.386;2023-08-20T09:12:15;4.65;;;1.73;;
61709;SDS011;47633;51.494;5.386;2023-08-20T09:14:51;5.25;;;2.08;;
61709;SDS011;47633;51.494;5.386;2023-08-20T09:17:17;4.60;;;1.77;;
61709;SDS011;47633;51.494;5.386;2023-08-20T09:19:44;4.15;;;2.08;;
61709;SDS011;47633;51.494;5.386;2023-08-20T09:22:13;5.75;;;1.98;;
61709;SDS011;47633;51.494;5.386;2023-08-20T09:24:40;6.93;;;1.95;;
61709;SDS011;47633;51.494;5.386;2023-08-20T09:27:09;6.68;;;1.90;;
61709;SDS011;47633;51.494;5.386;2023-08-20T09:29:45;4.07;;;1.80;;
61709;SDS011;47633;51.494;5.386;2023-08-20T09:32:14;5.72;;;1.67;;
61709;SDS011;47633;51.494;5.386;2023-08-20T09:34:41;4.85;;;1.70;;
61709;SDS011;47633;51.494;5.386;2023-08-20T09:37:10;3.88;;;1.63;;
61709;SDS011;47633;51.494;5.386;2023-08-20T09:39:37;4.57;;;1.60;;
61709;SDS011;47633;51.494;5.386;2023-08-20T09:42:03;3.65;;;1.65;;
61709;SDS011;47633;51.494;5.386;2023-08-20T09:44:32;5.82;;;2.38;;
61709;SDS011;47633;51.494;5.386;2023-08-20T09:47:11;2.78;;;1.40;;
61709;SDS011;47633;51.494;5.386;2023-08-20T09:49:44;4.10;;;1.50;;
61709;SDS011;47633;51.494;5.386;2023-08-20T09:52:11;4.60;;;1.90;;
61709;SDS011;47633;51.494;5.386;2023-08-20T09:57:14;4.93;;;1.50;;
61709;SDS011;47633;51.494;5.386;2023-08-20T09:59:46;17.90;;;1.83;;
61709;SDS011;47633;51.494;5.386;2023-08-20T10:02:13;5.13;;;2.00;;
61709;SDS011;47633;51.494;5.386;2023-08-20T10:04:39;4.68;;;1.50;;
61709;SDS011;47633;51.494;5.386;2023-08-20T10:07:05;5.38;;;1.67;;
61709;SDS011;47633;51.494;5.386;2023-08-20T10:09:31;3.30;;;1.30;;
61709;SDS011;47633;51.494;5.386;2023-08-20T10:11:57;4.15;;;1.33;;
61709;SDS011;47633;51.494;5.386;2023-08-20T10:14:22;4.25;;;1.30;;
61709;SDS011;47633;51.494;5.386;2023-08-20T10:16:47;3.42;;;1.42;;
61709;SDS011;47633;51.494;5.386;2023-08-20T10:19:14;3.60;;;1.38;;
61709;SDS011;47633;51.494;5.386;2023-08-20T10:21:44;3.08;;;1.10;;
61709;SDS011;47633;51.494;5.386;2023-08-20T10:24:12;4.32;;;1.50;;
61709;SDS011;47633;51.494;5.386;2023-08-20T10:26:41;4.38;;;1.13;;
61709;SDS011;47633;51.494;5.386;2023-08-20T10:32:08;6.72;;;1.20;;
61709;SDS011;47633;51.494;5.386;2023-08-20T10:34:35;4.13;;;1.30;;
61709;SDS011;47633;51.494;5.386;2023-08-20T10:37:08;3.78;;;1.40;;
61709;SDS011;47633;51.494;5.386;2023-08-20T10:39:35;3.72;;;1.70;;
61709;SDS011;47633;51.494;5.386;2023-08-20T10:47:41;5.45;;;1.67;;
61709;SDS011;47633;51.494;5.386;2023-08-20T10:50:08;6.30;;;1.85;;
61709;SDS011;47633;51.494;5.386;2023-08-20T10:52:39;8.38;;;2.53;;
61709;SDS011;47633;51.494;5.386;2023-08-20T10:55:06;7.15;;;2.08;;
61709;SDS011;47633;51.494;5.386;2023-08-20T10:57:33;6.53;;;2.05;;
61709;SDS011;47633;51.494;5.386;2023-08-20T10:59:59;5.05;;;1.80;;
61709;SDS011;47633;51.494;5.386;2023-08-20T11:02:31;4.93;;;1.70;;
61709;SDS011;47633;51.494;5.386;2023-08-20T11:04:57;8.90;;;1.70;;
61709;SDS011;47633;51.494;5.386;2023-08-20T11:07:23;5.85;;;1.63;;
61709;SDS011;47633;51.494;5.386;2023-08-20T11:09:50;7.10;;;2.03;;
61709;SDS011;47633;51.494;5.386;2023-08-20T11:12:15;4.95;;;1.67;;
61709;SDS011;47633;51.494;5.386;2023-08-20T11:14:41;4.88;;;1.52;;
61709;SDS011;47633;51.494;5.386;2023-08-20T11:17:06;5.38;;;1.85;;
61709;SDS011;47633;51.494;5.386;2023-08-20T11:19:33;7.63;;;2.10;;
61709;SDS011;47633;51.494;5.386;2023-08-20T11:21:58;6.55;;;2.38;;
61709;SDS011;47633;51.494;5.386;2023-08-20T11:24:27;4.68;;;1.48;;
61709;SDS011;47633;51.494;5.386;2023-08-20T11:26:53;8.10;;;1.70;;
61709;SDS011;47633;51.494;5.386;2023-08-20T11:29:20;5.38;;;1.77;;
61709;SDS011;47633;51.494;5.386;2023-08-20T11:31:46;4.43;;;1.60;;
61709;SDS011;47633;51.494;5.386;2023-08-20T11:34:12;7.53;;;1.80;;
61709;SDS011;47633;51.494;5.386;2023-08-20T11:36:40;6.97;;;1.60;;
61709;SDS011;47633;51.494;5.386;2023-08-20T11:39:09;6.30;;;1.58;;
61709;SDS011;47633;51.494;5.386;2023-08-20T11:41:38;6.00;;;1.60;;
61709;SDS011;47633;51.494;5.386;2023-08-20T11:44:05;5.57;;;1.70;;
61709;SDS011;47633;51.494;5.386;2023-08-20T11:46:32;4.13;;;1.45;;
61709;SDS011;47633;51.494;5.386;2023-08-20T11:49:07;5.60;;;1.50;;
61709;SDS011;47633;51.494;5.386;2023-08-20T11:54:07;8.75;;;2.10;;
61709;SDS011;47633;51.494;5.386;2023-08-20T11:56:34;4.47;;;1.40;;
61709;SDS011;47633;51.494;5.386;2023-08-20T11:59:00;5.20;;;1.40;;
61709;SDS011;47633;51.494;5.386;2023-08-20T12:01:30;4.93;;;1.55;;
61709;SDS011;47633;51.494;5.386;2023-08-20T12:04:03;5.28;;;1.55;;
61709;SDS011;47633;51.494;5.386;2023-08-20T12:06:29;4.97;;;1.55;;
61709;SDS011;47633;51.494;5.386;2023-08-20T12:08:55;5.32;;;1.60;;
61709;SDS011;47633;51.494;5.386;2023-08-20T12:11:28;5.43;;;1.40;;
61709;SDS011;47633;51.494;5.386;2023-08-20T12:13:55;3.90;;;1.27;;
61709;SDS011;47633;51.494;5.386;2023-08-20T12:16:21;3.78;;;1.27;;
61709;SDS011;47633;51.494;5.386;2023-08-20T12:18:48;6.20;;;1.50;;
61709;SDS011;47633;51.494;5.386;2023-08-20T12:21:14;4.47;;;1.33;;
61709;SDS011;47633;51.494;5.386;2023-08-20T12:23:39;3.30;;;1.20;;
61709;SDS011;47633;51.494;5.386;2023-08-20T12:26:04;6.40;;;1.63;;
61709;SDS011;47633;51.494;5.386;2023-08-20T12:28:30;3.95;;;1.20;;
61709;SDS011;47633;51.494;5.386;2023-08-20T12:30:55;7.03;;;1.40;;
61709;SDS011;47633;51.494;5.386;2023-08-20T12:33:22;3.92;;;1.02;;
61709;SDS011;47633;51.494;5.386;2023-08-20T12:35:47;6.72;;;1.63;;
61709;SDS011;47633;51.494;5.386;2023-08-20T12:38:12;3.92;;;1.10;;
61709;SDS011;47633;51.494;5.386;2023-08-20T12:40:38;4.22;;;1.40;;
61709;SDS011;47633;51.494;5.386;2023-08-20T12:43:03;5.65;;;1.30;;
61709;SDS011;47633;51.494;5.386;2023-08-20T12:45:29;6.95;;;1.25;;
61709;SDS011;47633;51.494;5.386;2023-08-20T12:47:54;4.47;;;1.42;;
61709;SDS011;47633;51.494;5.386;2023-08-20T12:50:20;5.38;;;1.45;;
61709;SDS011;47633;51.494;5.386;2023-08-20T12:52:45;7.35;;;1.75;;
61709;SDS011;47633;51.494;5.386;2023-08-20T12:55:12;9.70;;;1.63;;
61709;SDS011;47633;51.494;5.386;2023-08-20T12:57:47;4.30;;;1.30;;
61709;SDS011;47633;51.494;5.386;2023-08-20T13:00:21;3.53;;;1.25;;
61709;SDS011;47633;51.494;5.386;2023-08-20T13:02:47;3.90;;;1.20;;
61709;SDS011;47633;51.494;5.386;2023-08-20T13:05:12;4.45;;;1.40;;
61709;SDS011;47633;51.494;5.386;2023-08-20T13:07:39;5.97;;;1.60;;
61709;SDS011;47633;51.494;5.386;2023-08-20T13:10:04;6.47;;;1.48;;
61709;SDS011;47633;51.494;5.386;2023-08-20T13:12:30;4.20;;;1.10;;
61709;SDS011;47633;51.494;5.386;2023-08-20T13:14:58;5.25;;;1.50;;
61709;SDS011;47633;51.494;5.386;2023-08-20T13:17:24;6.25;;;1.50;;
61709;SDS011;47633;51.494;5.386;2023-08-20T13:19:49;4.35;;;1.35;;
61709;SDS011;47633;51.494;5.386;2023-08-20T13:22:15;4.55;;;1.30;;
61709;SDS011;47633;51.494;5.386;2023-08-20T13:24:40;3.58;;;1.20;;
61709;SDS011;47633;51.494;5.386;2023-08-20T13:27:06;3.15;;;1.08;;
61709;SDS011;47633;51.494;5.386;2023-08-20T13:29:31;3.50;;;1.20;;
61709;SDS011;47633;51.494;5.386;2023-08-20T13:31:56;4.22;;;1.05;;
61709;SDS011;47633;51.494;5.386;2023-08-20T13:34:22;3.40;;;1.13;;
61709;SDS011;47633;51.494;5.386;2023-08-20T13:36:47;2.78;;;0.90;;
61709;SDS011;47633;51.494;5.386;2023-08-20T13:39:13;3.15;;;0.90;;
61709;SDS011;47633;51.494;5.386;2023-08-20T13:41:39;3.70;;;1.17;;
61709;SDS011;47633;51.494;5.386;2023-08-20T13:44:05;3.72;;;1.42;;
61709;SDS011;47633;51.494;5.386;2023-08-20T13:46:30;3.47;;;1.20;;
61709;SDS011;47633;51.494;5.386;2023-08-20T13:48:56;2.50;;;0.90;;
61709;SDS011;47633;51.494;5.386;2023-08-20T13:51:21;3.05;;;1.10;;
61709;SDS011;47633;51.494;5.386;2023-08-20T13:53:46;3.25;;;1.00;;
61709;SDS011;47633;51.494;5.386;2023-08-20T13:56:12;3.10;;;0.90;;
61709;SDS011;47633;51.494;5.386;2023-08-20T13:58:37;3.25;;;1.15;;
61709;SDS011;47633;51.494;5.386;2023-08-20T14:01:03;6.38;;;0.98;;
61709;SDS011;47633;51.494;5.386;2023-08-20T14:03:28;4.25;;;1.42;;
61709;SDS011;47633;51.494;5.386;2023-08-20T14:05:54;5.80;;;1.20;;
61709;SDS011;47633;51.494;5.386;2023-08-20T14:08:19;3.83;;;1.07;;
61709;SDS011;47633;51.494;5.386;2023-08-20T14:10:44;3.92;;;1.10;;
61709;SDS011;47633;51.494;5.386;2023-08-20T14:13:10;3.05;;;1.15;;
61709;SDS011;47633;51.494;5.386;2023-08-20T14:15:35;4.13;;;1.00;;
61709;SDS011;47633;51.494;5.386;2023-08-20T14:18:01;3.15;;;1.20;;
61709;SDS011;47633;51.494;5.386;2023-08-20T14:20:26;3.45;;;1.10;;
61709;SDS011;47633;51.494;5.386;2023-08-20T14:22:52;3.47;;;1.05;;
61709;SDS011;47633;51.494;5.386;2023-08-20T14:25:18;3.30;;;1.10;;
61709;SDS011;47633;51.494;5.386;2023-08-20T14:27:43;3.20;;;1.00;;
61709;SDS011;47633;51.494;5.386;2023-08-20T14:30:09;2.03;;;0.80;;
61709;SDS011;47633;51.494;5.386;2023-08-20T14:32:35;3.13;;;1.00;;
61709;SDS011;47633;51.494;5.386;2023-08-20T14:35:00;2.63;;;0.90;;
61709;SDS011;47633;51.494;5.386;2023-08-20T14:37:26;3.00;;;0.98;;
61709;SDS011;47633;51.494;5.386;2023-08-20T14:39:51;3.20;;;1.20;;
61709;SDS011;47633;51.494;5.386;2023-08-20T14:42:16;3.72;;;1.00;;
61709;SDS011;47633;51.494;5.386;2023-08-20T14:44:42;2.13;;;0.85;;
61709;SDS011;47633;51.494;5.386;2023-08-20T14:47:07;4.25;;;1.33;;
61709;SDS011;47633;51.494;5.386;2023-08-20T14:49:32;3.42;;;1.10;;
61709;SDS011;47633;51.494;5.386;2023-08-20T14:51:58;2.67;;;0.80;;
61709;SDS011;47633;51.494;5.386;2023-08-20T14:54:24;3.70;;;1.02;;
61709;SDS011;47633;51.494;5.386;2023-08-20T14:56:50;3.00;;;1.15;;
61709;SDS011;47633;51.494;5.386;2023-08-20T14:59:16;5.55;;;1.25;;
61709;SDS011;47633;51.494;5.386;2023-08-20T15:01:41;4.82;;;1.15;;
61709;SDS011;47633;51.494;5.386;2023-08-20T15:04:06;3.03;;;0.95;;
61709;SDS011;47633;51.494;5.386;2023-08-20T15:06:32;5.07;;;1.10;;